Time;durP1;ratioP1;P1;durP2;ratioP2;P2;SDS_P1;SDS_P2;PMS_P1;PMS_P2;Temp;Humidity;BMP_temperature;BMP_pressure;BME280_temperature;BME280_humidity;BME280_pressure;Samples;Min_cycle;Max_cycle;Signal;HPM_P1;HPM_P2
2022/04/25 00:01:22;;;;;;;18.92;4.18;;;16.80;90.90;;;;;;5034076;28;20113;-77
2022/04/25 00:03:48;;;;;;;18.90;3.78;;;16.80;91.00;;;;;;5034171;28;20060;-75
2022/04/25 00:06:14;;;;;;;18.98;3.95;;;16.70;91.20;;;;;;5016113;28;20048;-76
2022/04/25 00:08:39;;;;;;;12.85;3.28;;;16.70;91.10;;;;;;5033883;28;20100;-75
2022/04/25 00:11:05;;;;;;;17.75;4.28;;;16.70;91.40;;;;;;5033319;28;20033;-73
2022/04/25 00:13:32;;;;;;;20.05;4.22;;;16.70;91.40;;;;;;5033969;28;20100;-74
2022/04/25 00:15:57;;;;;;;18.88;4.22;;;16.70;91.60;;;;;;5033547;28;20056;-74
2022/04/25 00:18:23;;;;;;;20.30;3.80;;;16.70;91.60;;;;;;5034017;28;20033;-75
2022/04/25 00:20:50;;;;;;;16.05;4.03;;;16.70;91.80;;;;;;5033807;28;20029;-74
2022/04/25 00:23:16;;;;;;;22.83;4.53;;;16.70;92.00;;;;;;5033809;28;20025;-75
2022/04/25 00:25:42;;;;;;;18.65;4.18;;;16.60;92.20;;;;;;5033399;28;20087;-74
2022/04/25 00:28:07;;;;;;;15.63;4.00;;;16.70;92.30;;;;;;5035732;28;20033;-74
2022/04/25 00:30:34;;;;;;;21.08;4.55;;;16.70;92.30;;;;;;5037583;28;20025;-72
2022/04/25 00:33:00;;;;;;;17.70;4.00;;;16.70;92.30;;;;;;5037850;28;20060;-73
2022/04/25 00:35:26;;;;;;;22.20;4.47;;;16.70;92.50;;;;;;5037551;28;20041;-75
2022/04/25 00:37:53;;;;;;;23.67;4.22;;;16.70;92.50;;;;;;5037550;28;20388;-73
2022/04/25 00:40:21;;;;;;;21.90;4.78;;;16.70;92.60;;;;;;5037704;28;20057;-72
2022/04/25 00:42:47;;;;;;;19.85;5.30;;;16.60;92.60;;;;;;5037580;28;20018;-75
2022/04/25 00:45:14;;;;;;;18.98;4.90;;;16.70;92.80;;;;;;5035946;28;20025;-74
2022/04/25 00:47:41;;;;;;;17.73;4.25;;;16.60;92.80;;;;;;5037190;28;20025;-74
2022/04/25 00:50:08;;;;;;;22.75;5.15;;;16.60;92.90;;;;;;5037042;28;20072;-75
2022/04/25 00:52:34;;;;;;;18.90;4.07;;;16.60;93.00;;;;;;5036905;28;20064;-74
2022/04/25 00:55:01;;;;;;;21.58;4.40;;;16.60;93.10;;;;;;5019501;28;20382;-76
2022/04/25 00:57:28;;;;;;;15.88;4.25;;;16.60;93.20;;;;;;5037125;28;20021;-73
2022/04/25 00:59:57;;;;;;;24.30;4.28;;;16.60;93.20;;;;;;5036923;28;20021;-74
2022/04/25 01:02:25;;;;;;;18.30;4.60;;;16.60;93.30;;;;;;5036908;28;20025;-74
2022/04/25 01:04:51;;;;;;;23.05;5.18;;;16.60;93.50;;;;;;5036594;28;20022;-75
2022/04/25 01:07:16;;;;;;;20.83;4.88;;;16.60;93.50;;;;;;5036817;28;20489;-75
2022/04/25 01:09:42;;;;;;;15.82;4.28;;;16.60;93.70;;;;;;5036508;28;20455;-76
2022/04/25 01:12:08;;;;;;;23.75;4.22;;;16.60;93.70;;;;;;5036847;28;20100;-75
2022/04/25 01:14:34;;;;;;;18.88;4.20;;;16.50;93.70;;;;;;5035597;28;20095;-73
2022/04/25 01:17:00;;;;;;;22.15;4.75;;;16.50;93.90;;;;;;5036626;28;20479;-75
2022/04/25 01:19:26;;;;;;;20.60;4.90;;;16.50;94.30;;;;;;5018758;28;20029;-77
2022/04/25 01:22:07;;;;;;;30.88;5.47;;;16.50;94.20;;;;;;5036574;28;20087;-75
2022/04/25 01:27:18;;;;;;;18.02;4.40;;;16.50;94.30;;;;;;5036868;28;20044;-75
2022/04/25 01:29:54;;;;;;;26.15;5.18;;;16.50;94.50;;;;;;5036644;28;20030;-74
2022/04/25 01:32:24;;;;;;;21.08;4.80;;;16.50;94.50;;;;;;5036381;28;20034;-76
2022/04/25 01:34:50;;;;;;;23.58;5.53;;;16.50;94.60;;;;;;5036418;28;20065;-73
2022/04/25 01:37:19;;;;;;;21.02;4.30;;;16.50;94.70;;;;;;5036244;28;20033;-74
2022/04/25 01:39:51;;;;;;;23.23;4.57;;;16.50;94.60;;;;;;5034922;28;20394;-71
2022/04/25 01:42:18;;;;;;;23.80;6.15;;;16.50;94.60;;;;;;5036524;28;20017;-75
2022/04/25 01:44:44;;;;;;;20.00;5.00;;;16.50;94.90;;;;;;5036252;28;20033;-74
2022/04/25 01:47:10;;;;;;;27.67;5.95;;;16.50;94.70;;;;;;5036471;28;20025;-74
2022/04/25 01:49:37;;;;;;;26.42;5.28;;;16.50;94.70;;;;;;5036394;28;20017;-76
2022/04/25 01:52:19;;;;;;;25.80;5.53;;;16.50;94.80;;;;;;5036833;28;20057;-74
2022/04/25 01:54:45;;;;;;;22.92;6.03;;;16.60;94.80;;;;;;5018263;28;20125;-72
2022/04/25 01:57:11;;;;;;;19.23;4.80;;;16.50;94.80;;;;;;5036108;28;20108;-76
2022/04/25 01:59:37;;;;;;;29.20;6.55;;;16.50;95.00;;;;;;5036728;28;20108;-75
2022/04/25 02:02:04;;;;;;;26.65;5.85;;;16.50;95.00;;;;;;5036475;28;20037;-75
2022/04/25 02:04:29;;;;;;;22.20;5.15;;;16.50;95.10;;;;;;5036012;28;20021;-75
2022/04/25 02:06:56;;;;;;;21.58;5.15;;;16.50;95.10;;;;;;5036142;28;20159;-73
2022/04/25 02:09:22;;;;;;;20.88;4.80;;;16.50;95.20;;;;;;5035667;28;20062;-70
2022/04/25 02:11:48;;;;;;;22.13;4.47;;;16.50;95.20;;;;;;5035550;28;20026;-70
2022/04/25 02:14:13;;;;;;;25.95;5.35;;;16.40;95.30;;;;;;5035480;28;20121;-74
2022/04/25 02:16:39;;;;;;;22.35;5.10;;;16.50;95.40;;;;;;5035849;28;20490;-71
2022/04/25 02:19:05;;;;;;;22.25;5.18;;;16.50;95.40;;;;;;5018140;28;20025;-73
2022/04/25 02:21:31;;;;;;;22.38;5.65;;;16.40;95.30;;;;;;5035832;28;20025;-74
2022/04/25 02:23:57;;;;;;;17.42;4.80;;;16.40;95.40;;;;;;5036466;28;20017;-70
2022/04/25 02:26:23;;;;;;;25.42;6.38;;;16.40;95.50;;;;;;5037055;28;20028;-73
2022/04/25 02:28:49;;;;;;;21.08;4.95;;;16.50;95.50;;;;;;5036321;28;20021;-76
2022/04/25 02:31:15;;;;;;;18.90;5.30;;;16.50;95.50;;;;;;5020408;28;20033;-76
2022/04/25 02:33:41;;;;;;;25.17;6.05;;;16.50;95.50;;;;;;5038882;28;20017;-74
2022/04/25 02:36:08;;;;;;;21.70;4.53;;;16.50;95.60;;;;;;5040304;28;20111;-71
2022/04/25 02:38:35;;;;;;;23.95;5.82;;;16.40;95.60;;;;;;5039992;28;20032;-75
2022/04/25 02:41:04;;;;;;;19.67;5.22;;;16.50;95.60;;;;;;5037945;28;20033;-75
2022/04/25 02:43:35;;;;;;;22.25;5.20;;;16.50;95.60;;;;;;5035112;28;20021;-74
2022/04/25 02:46:06;;;;;;;17.73;4.40;;;16.50;95.60;;;;;;5034723;28;20022;-73
2022/04/25 02:48:32;;;;;;;25.67;4.75;;;16.50;95.60;;;;;;5034637;28;20025;-75
2022/04/25 02:50:59;;;;;;;18.98;5.28;;;16.50;95.70;;;;;;5034332;28;20056;-75
2022/04/25 02:53:25;;;;;;;18.10;5.47;;;16.50;95.70;;;;;;5034526;28;20029;-73
2022/04/25 02:55:52;;;;;;;17.00;5.45;;;16.50;95.50;;;;;;5034243;28;20068;-72
2022/04/25 02:58:22;;;;;;;21.02;5.15;;;16.50;95.50;;;;;;5034551;28;20021;-72
2022/04/25 03:00:49;;;;;;;19.38;5.10;;;16.50;95.50;;;;;;5034514;28;20105;-70
2022/04/25 03:03:17;;;;;;;19.08;4.95;;;16.60;95.60;;;;;;5034300;28;20017;-73
2022/04/25 03:05:45;;;;;;;19.80;4.93;;;16.60;95.60;;;;;;5034437;28;20032;-74
2022/04/25 03:08:15;;;;;;;22.50;4.90;;;16.60;95.60;;;;;;5034235;28;20025;-71
2022/04/25 03:10:43;;;;;;;20.67;5.30;;;16.60;95.60;;;;;;5034172;28;20097;-72
2022/04/25 03:13:09;;;;;;;14.73;4.85;;;16.50;95.50;;;;;;5034136;28;20036;-74
2022/04/25 03:15:38;;;;;;;21.67;5.00;;;16.50;95.60;;;;;;5033810;28;20128;-74
2022/04/25 03:18:05;;;;;;;18.70;5.43;;;16.50;95.70;;;;;;5034387;28;20153;-72
2022/04/25 03:20:31;;;;;;;19.25;4.53;;;16.50;95.80;;;;;;5034227;28;20021;-71
2022/04/25 03:22:58;;;;;;;21.63;5.07;;;16.50;95.80;;;;;;5034209;28;20112;-73
2022/04/25 03:25:24;;;;;;;21.85;5.10;;;16.40;95.90;;;;;;5033997;28;20021;-73
2022/04/25 03:27:50;;;;;;;21.88;5.13;;;16.40;96.00;;;;;;5033898;28;20028;-71
2022/04/25 03:30:16;;;;;;;17.33;4.85;;;16.40;96.30;;;;;;5033882;28;20190;-75
2022/04/25 03:32:47;;;;;;;15.57;4.70;;;16.40;96.10;;;;;;5034061;28;20025;-72
2022/04/25 03:35:13;;;;;;;18.70;4.65;;;16.40;96.50;;;;;;5033725;28;20033;-69
2022/04/25 03:37:40;;;;;;;17.83;4.85;;;16.40;96.20;;;;;;5033957;28;20021;-73
2022/04/25 03:40:08;;;;;;;19.90;4.82;;;16.30;96.20;;;;;;5033889;28;20065;-73
2022/04/25 03:42:34;;;;;;;19.33;4.50;;;16.40;96.40;;;;;;5033919;28;20032;-75
2022/04/25 03:45:00;;;;;;;19.60;4.22;;;16.40;96.50;;;;;;5033846;28;20036;-74
2022/04/25 03:47:28;;;;;;;25.85;5.57;;;16.30;96.40;;;;;;5033745;28;20450;-73
2022/04/25 03:49:54;;;;;;;16.48;5.40;;;16.40;96.60;;;;;;5033779;28;20034;-71
2022/04/25 03:52:20;;;;;;;18.40;5.18;;;16.30;96.60;;;;;;5033569;28;20048;-71
2022/04/25 03:57:29;;;;;;;;;;;16.30;96.80;;;;;;5034366;28;20589;-77
2022/04/25 03:59:55;;;;;;;22.40;5.47;;;16.20;96.90;;;;;;5034212;28;19904;-76
2022/04/25 04:02:21;;;;;;;19.90;5.22;;;16.20;96.90;;;;;;5033009;28;20455;-76
2022/04/25 04:04:48;;;;;;;23.65;5.25;;;16.20;97.00;;;;;;5032689;28;20065;-72
2022/04/25 04:07:14;;;;;;;20.23;5.18;;;16.10;97.00;;;;;;5033327;28;20100;-71
2022/04/25 04:09:45;;;;;;;22.00;4.97;;;16.20;97.10;;;;;;5033580;28;20064;-76
2022/04/25 04:12:18;;;;;;;21.45;5.78;;;16.20;97.20;;;;;;5033728;28;20026;-74
2022/04/25 04:14:44;;;;;;;20.93;5.33;;;16.10;97.30;;;;;;5033188;28;20040;-76
2022/04/25 04:17:11;;;;;;;21.58;5.55;;;16.10;97.30;;;;;;5032195;28;20268;-77
2022/04/25 04:19:38;;;;;;;18.15;6.07;;;16.10;97.30;;;;;;5033536;28;20033;-75
2022/04/25 04:22:05;;;;;;;15.68;5.28;;;16.20;97.40;;;;;;5033476;28;20077;-77
2022/04/25 04:24:32;;;;;;;23.52;5.18;;;16.10;97.40;;;;;;5033432;28;20498;-76
2022/04/25 04:27:06;;;;;;;16.35;4.97;;;16.20;97.40;;;;;;5033481;28;20109;-76
2022/04/25 04:29:33;;;;;;;20.95;5.18;;;16.10;97.40;;;;;;5033417;28;20394;-74
2022/04/25 04:32:02;;;;;;;20.60;5.15;;;16.20;97.50;;;;;;5033364;28;20482;-76
2022/04/25 04:34:28;;;;;;;22.23;5.15;;;16.10;97.60;;;;;;5033255;28;20386;-76
2022/04/25 04:36:54;;;;;;;22.27;4.88;;;16.10;97.70;;;;;;5033507;28;20417;-75
2022/04/25 04:39:21;;;;;;;21.95;5.70;;;16.10;97.80;;;;;;5033248;28;20029;-75
2022/04/25 04:41:47;;;;;;;24.13;5.50;;;16.10;97.80;;;;;;5033111;28;20025;-75
2022/04/25 04:44:14;;;;;;;24.95;6.28;;;16.10;97.70;;;;;;5033561;28;20032;-76
2022/04/25 04:46:41;;;;;;;19.98;6.13;;;16.10;97.70;;;;;;5032949;28;20033;-70
2022/04/25 04:49:06;;;;;;;24.58;5.30;;;16.10;97.80;;;;;;5032944;28;20026;-71
2022/04/25 04:51:32;;;;;;;24.55;5.43;;;16.10;97.70;;;;;;5033011;28;20493;-70
2022/04/25 04:54:02;;;;;;;17.45;4.97;;;16.20;97.70;;;;;;5033037;28;20033;-72
2022/04/25 04:56:31;;;;;;;15.25;4.88;;;16.20;97.50;;;;;;5033011;28;20120;-70
2022/04/25 04:58:58;;;;;;;26.67;5.65;;;16.30;97.50;;;;;;5033061;28;20022;-76
2022/04/25 05:01:24;;;;;;;23.15;5.75;;;16.30;97.40;;;;;;5033367;28;20128;-76
2022/04/25 05:03:50;;;;;;;22.27;6.47;;;16.30;97.30;;;;;;5033009;28;20029;-76
2022/04/25 05:06:16;;;;;;;19.90;5.70;;;16.30;97.30;;;;;;5033262;28;20502;-78
2022/04/25 05:08:42;;;;;;;21.63;6.18;;;16.40;97.10;;;;;;5033213;28;20109;-76
2022/04/25 05:11:10;;;;;;;20.73;5.43;;;16.50;97.00;;;;;;5033139;28;20494;-74
2022/04/25 05:13:36;;;;;;;20.48;5.82;;;16.50;96.90;;;;;;5033975;28;20033;-70
2022/04/25 05:16:03;;;;;;;24.70;5.70;;;16.50;96.90;;;;;;5036912;28;20049;-76
2022/04/25 05:18:33;;;;;;;20.15;5.28;;;16.50;96.80;;;;;;5047574;28;20029;-72
2022/04/25 05:21:01;;;;;;;18.75;5.72;;;16.60;96.80;;;;;;5056926;28;20056;-76
2022/04/25 05:23:27;;;;;;;22.25;6.07;;;16.60;96.70;;;;;;5054045;28;20036;-74
2022/04/25 05:25:54;;;;;;;25.80;6.15;;;16.60;96.70;;;;;;5036742;28;20025;-77
2022/04/25 05:28:19;;;;;;;21.15;5.80;;;16.60;96.50;;;;;;5036671;28;20036;-75
2022/04/25 05:30:46;;;;;;;21.90;6.20;;;16.70;96.50;;;;;;5018474;28;20104;-77
2022/04/25 05:33:13;;;;;;;22.63;5.75;;;16.70;96.50;;;;;;5036447;28;20071;-76
2022/04/25 05:35:39;;;;;;;22.48;5.82;;;16.80;96.60;;;;;;5036417;28;20090;-76
2022/04/25 05:38:10;;;;;;;20.38;4.95;;;16.80;96.30;;;;;;5037561;28;20029;-75
2022/04/25 05:40:36;;;;;;;26.30;8.13;;;17.00;96.10;;;;;;5036557;28;20100;-75
2022/04/25 05:43:04;;;;;;;23.88;6.90;;;17.10;95.80;;;;;;5036434;28;20105;-76
2022/04/25 05:45:31;;;;;;;32.35;6.63;;;17.30;95.50;;;;;;5036108;28;20104;-74
2022/04/25 05:47:57;;;;;;;20.33;5.43;;;17.50;95.10;;;;;;5036179;28;20382;-74
2022/04/25 05:53:09;;;;;;;28.00;5.28;;;17.80;94.40;;;;;;5035939;28;20159;-73
2022/04/25 05:55:36;;;;;;;22.92;5.70;;;17.90;93.80;;;;;;5035543;28;20219;-75
2022/04/25 05:58:03;;;;;;;33.88;6.43;;;18.10;93.40;;;;;;5035788;28;20021;-75
2022/04/25 06:00:30;;;;;;;19.30;5.85;;;18.30;92.90;;;;;;5035754;28;20111;-70
2022/04/25 06:02:56;;;;;;;23.10;5.60;;;18.40;92.50;;;;;;5035535;28;20036;-70
2022/04/25 06:05:23;;;;;;;22.15;5.43;;;18.60;92.40;;;;;;5035189;28;20101;-72
2022/04/25 06:07:50;;;;;;;21.73;5.32;;;18.60;91.50;;;;;;5033975;28;20029;-71
2022/04/25 06:10:18;;;;;;;20.05;4.88;;;18.80;91.20;;;;;;5035324;28;20029;-70
2022/04/25 06:12:52;;;;;;;21.35;5.13;;;18.90;90.80;;;;;;5035307;28;20024;-71
2022/04/25 06:15:21;;;;;;;18.38;5.60;;;19.00;90.20;;;;;;5034862;28;20136;-74
2022/04/25 06:17:47;;;;;;;25.50;5.45;;;19.00;89.70;;;;;;5035362;28;20113;-76
2022/04/25 06:20:13;;;;;;;24.90;5.68;;;19.20;89.40;;;;;;5035250;28;20032;-75
2022/04/25 06:22:39;;;;;;;16.63;5.43;;;19.40;88.30;;;;;;5017710;28;20018;-75
2022/04/25 06:25:06;;;;;;;22.27;5.43;;;19.70;87.20;;;;;;5016836;28;20033;-76
2022/04/25 06:27:32;;;;;;;19.83;5.22;;;19.90;85.90;;;;;;5035424;28;20025;-76
2022/04/25 06:29:58;;;;;;;28.38;4.65;;;20.00;84.40;;;;;;5035039;28;20080;-74
2022/04/25 06:32:25;;;;;;;14.25;4.38;;;20.00;83.60;;;;;;5035018;28;20478;-76
2022/04/25 06:34:50;;;;;;;20.02;5.13;;;20.10;83.10;;;;;;5034955;28;20391;-74
2022/04/25 06:37:16;;;;;;;18.25;5.63;;;20.30;82.40;;;;;;5017254;28;20022;-75
2022/04/25 06:39:42;;;;;;;19.90;6.32;;;20.50;81.40;;;;;;5016980;28;20022;-77
2022/04/25 06:42:09;;;;;;;24.35;6.13;;;20.80;79.70;;;;;;5034780;28;20044;-75
2022/04/25 06:44:36;;;;;;;25.30;6.10;;;21.10;78.30;;;;;;5035084;28;20017;-76
2022/04/25 06:47:02;;;;;;;23.23;5.72;;;21.30;77.20;;;;;;5034769;28;20474;-74
2022/04/25 06:49:28;;;;;;;21.35;5.72;;;21.40;75.80;;;;;;5017233;28;20026;-75
2022/04/25 06:51:56;;;;;;;21.50;5.68;;;21.40;75.40;;;;;;5017023;28;20033;-77
2022/04/25 06:54:26;;;;;;;22.88;7.32;;;21.30;74.90;;;;;;5034353;28;20021;-75
2022/04/25 06:56:54;;;;;;;16.45;5.15;;;21.20;75.00;;;;;;5034594;28;20030;-71
2022/04/25 06:59:21;;;;;;;17.77;5.05;;;21.10;74.80;;;;;;5034520;28;20045;-73
2022/04/25 07:01:48;;;;;;;15.95;5.60;;;21.00;74.80;;;;;;5034477;28;20510;-70
2022/04/25 07:04:15;;;;;;;20.27;5.35;;;20.90;73.70;;;;;;5034025;28;20022;-69
2022/04/25 07:06:41;;;;;;;14.70;5.10;;;20.70;74.00;;;;;;5033011;28;20056;-71
2022/04/25 07:09:07;;;;;;;18.17;5.07;;;20.50;73.30;;;;;;5034436;28;20033;-73
2022/04/25 07:11:34;;;;;;;14.57;5.10;;;20.20;73.70;;;;;;5034415;28;20047;-76
2022/04/25 07:14:02;;;;;;;21.77;4.35;;;20.10;73.90;;;;;;5034295;28;20139;-76
2022/04/25 07:16:29;;;;;;;18.73;4.47;;;20.10;74.70;;;;;;5034433;28;20045;-76
2022/04/25 07:18:55;;;;;;;19.77;4.75;;;20.20;74.70;;;;;;5034104;28;20048;-72
2022/04/25 07:29:33;;;;;;;12.13;4.07;;;20.30;71.20;;;;;;5033864;28;20492;-70
2022/04/25 07:31:59;;;;;;;15.43;3.65;;;20.20;71.70;;;;;;5033874;28;20021;-70
2022/04/25 07:34:26;;;;;;;13.90;4.43;;;20.30;72.20;;;;;;5033485;28;20030;-70
2022/04/25 07:36:53;;;;;;;15.05;4.18;;;20.40;70.80;;;;;;5032921;28;20026;-69
2022/04/25 07:39:22;;;;;;;11.70;4.28;;;20.60;71.50;;;;;;5033439;28;20022;-72
2022/04/25 07:41:49;;;;;;;13.15;4.65;;;20.80;71.30;;;;;;5033678;28;20029;-72
2022/04/25 07:44:14;;;;;;;15.45;5.20;;;21.00;71.00;;;;;;5033681;28;20026;-71
2022/04/25 07:46:41;;;;;;;15.50;5.15;;;21.00;70.20;;;;;;5033163;28;20059;-72
2022/04/25 07:49:10;;;;;;;14.55;3.67;;;21.10;69.70;;;;;;5033509;28;20031;-74
2022/04/25 07:51:43;;;;;;;13.30;3.70;;;21.20;68.80;;;;;;5033327;28;20471;-72
2022/04/25 07:54:09;;;;;;;12.93;4.00;;;21.30;68.40;;;;;;5033467;28;20032;-70
2022/04/25 07:56:38;;;;;;;18.90;4.60;;;21.50;68.00;;;;;;5033513;28;20502;-71
2022/04/25 07:59:05;;;;;;;14.13;4.15;;;21.70;67.50;;;;;;5033284;28;20559;-72
2022/04/25 08:01:32;;;;;;;14.43;3.97;;;21.80;67.10;;;;;;5033468;28;20465;-70
2022/04/25 08:03:58;;;;;;;12.85;3.90;;;22.00;66.90;;;;;;5034704;28;20025;-71
2022/04/25 08:06:23;;;;;;;11.70;3.90;;;22.00;66.30;;;;;;5039414;28;20021;-71
2022/04/25 08:08:50;;;;;;;14.02;3.72;;;21.90;65.80;;;;;;5040421;28;20026;-71
2022/04/25 08:11:17;;;;;;;13.27;4.00;;;21.90;66.00;;;;;;5034729;28;20057;-73
2022/04/25 08:19:15;;;;;;;14.55;4.22;;;21.70;63.70;;;;;;5033217;28;20120;-71
2022/04/25 08:21:41;;;;;;;11.77;4.00;;;21.60;64.50;;;;;;5033167;28;20029;-71
2022/04/25 08:24:07;;;;;;;14.90;4.47;;;21.40;64.90;;;;;;5031670;28;20065;-71
2022/04/25 08:26:33;;;;;;;14.70;4.15;;;21.30;64.80;;;;;;5032993;28;20064;-71
2022/04/25 08:28:59;;;;;;;18.58;4.10;;;21.30;64.80;;;;;;5033123;28;20033;-70
2022/04/25 08:31:28;;;;;;;15.45;4.53;;;21.20;64.80;;;;;;5032685;28;20471;-71
2022/04/25 08:33:54;;;;;;;15.07;3.70;;;21.30;65.30;;;;;;5033107;28;20025;-70
2022/04/25 08:36:21;;;;;;;15.15;4.32;;;21.40;65.40;;;;;;5032907;28;20168;-72
2022/04/25 08:38:47;;;;;;;12.73;3.80;;;21.50;65.30;;;;;;5032953;28;20030;-70
2022/04/25 08:41:21;;;;;;;14.77;3.78;;;21.70;64.80;;;;;;5032680;28;20026;-71
2022/04/25 08:43:52;;;;;;;15.32;4.05;;;21.80;65.20;;;;;;5032633;28;20026;-70
2022/04/25 08:46:21;;;;;;;12.18;3.92;;;21.80;62.00;;;;;;5032861;28;20056;-70
2022/04/25 08:48:48;;;;;;;14.65;4.15;;;21.80;63.60;;;;;;5033957;28;20072;-70
2022/04/25 08:51:15;;;;;;;14.15;3.35;;;21.80;63.70;;;;;;5037124;28;20029;-71
2022/04/25 08:53:41;;;;;;;19.88;8.10;;;21.70;64.00;;;;;;5036742;28;20056;-71
2022/04/25 08:56:07;;;;;;;13.18;4.07;;;21.70;64.10;;;;;;5036816;28;20033;-71
2022/04/25 08:58:36;;;;;;;13.02;3.90;;;21.70;64.20;;;;;;5036712;28;20024;-75
2022/04/25 09:01:02;;;;;;;16.77;4.20;;;21.60;64.30;;;;;;5036765;28;20025;-70
2022/04/25 09:03:28;;;;;;;9.13;3.30;;;21.70;64.00;;;;;;5036619;28;20073;-70
2022/04/25 09:05:55;;;;;;;14.43;4.07;;;21.70;63.50;;;;;;5036544;28;20030;-71
2022/04/25 09:08:21;;;;;;;17.17;4.57;;;21.60;63.90;;;;;;5036542;28;20052;-71
2022/04/25 09:10:48;;;;;;;13.18;4.25;;;21.50;64.30;;;;;;5036349;28;20490;-71
2022/04/25 09:13:14;;;;;;;14.02;3.53;;;21.50;64.50;;;;;;5036294;28;20446;-71
2022/04/25 09:15:40;;;;;;;11.05;3.25;;;21.40;64.00;;;;;;5035947;28;20088;-71
2022/04/25 09:18:06;;;;;;;13.48;3.38;;;21.40;64.10;;;;;;5036353;28;20022;-72
2022/04/25 09:20:33;;;;;;;12.07;3.10;;;21.40;63.70;;;;;;5035043;28;20049;-70
2022/04/25 09:22:59;;;;;;;12.18;3.88;;;21.40;64.10;;;;;;5035677;28;20029;-71
2022/04/25 09:25:26;;;;;;;14.73;3.95;;;21.50;63.70;;;;;;5035861;28;20034;-71
2022/04/25 09:28:11;;;;;;;10.98;3.78;;;21.50;63.30;;;;;;5036089;28;20104;-70
2022/04/25 09:30:37;;;;;;;12.13;3.90;;;21.60;63.50;;;;;;5036132;28;20040;-71
2022/04/25 09:33:20;;;;;;;11.43;3.58;;;21.60;62.30;;;;;;5036043;28;20467;-70
2022/04/25 09:35:55;;;;;;;14.55;3.47;;;21.70;60.80;;;;;;5035907;28;20037;-70
2022/04/25 09:38:36;;;;;;;10.50;2.85;;;21.70;61.60;;;;;;5035799;28;20029;-70
2022/04/25 09:41:05;;;;;;;9.30;3.05;;;21.80;61.60;;;;;;5034610;28;20032;-70
2022/04/25 09:43:32;;;;;;;9.82;3.30;;;21.90;61.00;;;;;;5035387;28;20200;-71
2022/04/25 09:46:09;;;;;;;12.45;3.45;;;22.00;60.80;;;;;;5035486;28;20406;-70
2022/04/25 09:48:39;;;;;;;9.50;2.83;;;22.10;60.30;;;;;;5035737;28;20025;-70
2022/04/25 09:51:08;;;;;;;12.98;4.10;;;22.10;59.80;;;;;;5035543;28;20076;-73
2022/04/25 09:53:47;;;;;;;10.77;2.67;;;22.10;60.00;;;;;;5035568;28;20021;-71
2022/04/25 09:56:17;;;;;;;13.68;3.10;;;22.10;59.70;;;;;;5035630;28;20036;-73
2022/04/25 09:58:56;;;;;;;11.90;3.05;;;22.10;59.40;;;;;;5035806;28;20017;-71
2022/04/25 10:01:22;;;;;;;9.73;2.72;;;22.20;59.80;;;;;;5034551;28;20083;-70
2022/04/25 10:03:48;;;;;;;9.25;2.75;;;22.40;58.70;;;;;;5017574;28;20033;-70
2022/04/25 10:06:14;;;;;;;10.55;3.22;;;22.50;58.30;;;;;;5035663;28;20009;-74
2022/04/25 10:08:41;;;;;;;13.23;2.75;;;22.60;58.20;;;;;;5035582;28;20069;-74
2022/04/25 10:11:08;;;;;;;9.82;2.90;;;22.70;58.80;;;;;;5035592;28;20390;-73
2022/04/25 10:13:34;;;;;;;15.45;3.35;;;22.60;58.80;;;;;;5035400;28;20049;-73
2022/04/25 10:16:01;;;;;;;9.20;3.40;;;22.50;59.00;;;;;;5035334;28;20394;-74
2022/04/25 10:18:30;;;;;;;12.40;3.40;;;22.50;59.10;;;;;;5035168;28;20636;-74
2022/04/25 10:20:56;;;;;;;10.43;3.10;;;22.60;59.00;;;;;;5035329;28;20028;-74
2022/04/25 10:23:23;;;;;;;13.35;3.30;;;22.70;58.90;;;;;;5017638;28;20033;-75
2022/04/25 10:25:58;;;;;;;13.43;3.83;;;22.80;58.70;;;;;;5035316;28;20032;-74
2022/04/25 10:28:45;;;;;;;8.82;3.42;;;22.90;58.00;;;;;;5035081;28;20028;-75
2022/04/25 10:31:18;;;;;;;10.85;3.92;;;22.90;57.30;;;;;;5033930;28;20029;-74
2022/04/25 10:34:14;;;;;;;11.13;3.78;;;23.00;58.50;;;;;;5035161;28;20017;-75
2022/04/25 10:36:39;;;;;;;11.80;3.33;;;23.00;58.40;;;;;;5032920;28;20041;-74
2022/04/25 10:39:17;;;;;;;16.02;3.72;;;22.90;58.60;;;;;;5035285;28;20051;-76
2022/04/25 10:44:27;;;;;;;12.52;3.17;;;22.80;58.30;;;;;;5035036;28;20129;-73
2022/04/25 10:47:05;;;;;;;13.68;3.42;;;22.90;58.40;;;;;;5035346;28;20486;-74
2022/04/25 10:49:40;;;;;;;12.57;3.58;;;23.00;57.70;;;;;;5035425;28;20033;-74
2022/04/25 10:52:33;;;;;;;13.45;3.55;;;23.00;56.90;;;;;;5038613;28;20032;-73
2022/04/25 10:55:20;;;;;;;13.63;3.63;;;22.90;57.30;;;;;;5045339;28;20095;-71
2022/04/25 10:58:03;;;;;;;14.75;3.33;;;23.00;58.70;;;;;;5047928;28;20021;-74
2022/04/25 11:00:43;;;;;;;12.85;3.83;;;23.00;58.80;;;;;;5039947;28;20446;-72
2022/04/25 11:03:23;;;;;;;14.23;4.00;;;22.90;58.20;;;;;;5032996;28;20028;-74
2022/04/25 11:05:51;;;;;;;10.80;3.40;;;22.70;58.30;;;;;;5017796;28;20059;-73
2022/04/25 11:08:20;;;;;;;10.40;4.13;;;22.70;59.50;;;;;;5034573;28;20021;-75
2022/04/25 11:10:54;;;;;;;12.35;4.10;;;22.80;58.20;;;;;;5033941;28;20033;-76
2022/04/25 11:13:20;;;;;;;12.63;3.60;;;22.90;58.00;;;;;;5034205;28;20029;-73
2022/04/25 11:15:47;;;;;;;10.48;3.60;;;22.90;57.80;;;;;;5034401;28;20111;-74
2022/04/25 11:18:34;;;;;;;10.73;3.75;;;22.80;57.60;;;;;;5032899;28;20124;-74
2022/04/25 11:21:14;;;;;;;14.38;3.75;;;22.70;56.80;;;;;;5034239;28;20021;-75
2022/04/25 11:23:43;;;;;;;12.20;3.70;;;22.70;57.60;;;;;;5033966;28;20030;-75
2022/04/25 11:26:11;;;;;;;16.67;3.15;;;22.70;57.60;;;;;;5034247;28;20374;-74
2022/04/25 11:29:00;;;;;;;14.63;3.63;;;22.80;57.70;;;;;;5033945;28;20076;-72
2022/04/25 11:31:28;;;;;;;12.73;3.67;;;22.70;57.20;;;;;;5033956;28;20471;-75
2022/04/25 11:33:56;;;;;;;9.77;3.67;;;22.60;58.00;;;;;;5033731;28;20048;-73
2022/04/25 11:36:24;;;;;;;11.20;3.47;;;22.60;57.80;;;;;;5033706;28;20029;-74
2022/04/25 11:41:40;;;;;;;14.00;3.28;;;22.60;57.70;;;;;;5018542;28;20106;-74
2022/04/25 11:44:06;;;;;;;14.32;3.63;;;22.50;58.60;;;;;;5033253;28;20018;-69
2022/04/25 11:46:37;;;;;;;11.98;3.63;;;22.40;58.40;;;;;;5033235;28;20030;-70
2022/04/25 11:49:04;;;;;;;10.93;3.60;;;22.40;57.60;;;;;;5033326;28;20021;-70
2022/04/25 11:51:35;;;;;;;12.43;3.80;;;22.40;59.00;;;;;;5033286;28;20060;-71
2022/04/25 11:54:09;;;;;;;11.85;3.05;;;22.40;59.00;;;;;;5033266;28;20026;-72
2022/04/25 11:56:41;;;;;;;;;;;22.50;58.20;;;;;;5033609;28;20429;-71
2022/04/25 11:59:11;;;;;;;13.40;3.70;;;22.50;58.00;;;;;;5031981;28;20310;-72
2022/04/25 12:01:48;;;;;;;15.60;3.65;;;22.60;58.60;;;;;;5032912;28;20029;-71
2022/04/25 12:04:28;;;;;;;11.50;3.65;;;22.70;58.50;;;;;;5033045;28;20148;-72
2022/04/25 12:07:03;;;;;;;12.70;2.78;;;22.70;58.20;;;;;;5033746;28;20029;-77
2022/04/25 12:15:35;;;;;;;15.07;3.95;;;22.70;57.50;;;;;;5032778;28;20046;-71
2022/04/25 12:18:19;;;;;;;10.32;3.00;;;22.80;58.20;;;;;;5032971;28;20467;-73
2022/04/25 12:21:02;;;;;;;11.43;2.97;;;22.80;57.80;;;;;;5034367;28;20025;-71
2022/04/25 12:23:33;;;;;;;9.43;3.30;;;22.90;57.50;;;;;;5035452;28;20056;-72
2022/04/25 12:26:03;;;;;;;10.55;3.20;;;22.90;57.60;;;;;;5039695;28;20025;-72
2022/04/25 12:28:30;;;;;;;9.95;3.40;;;23.10;57.40;;;;;;5039717;28;20072;-74
2022/04/25 12:31:07;;;;;;;12.63;3.45;;;23.10;56.90;;;;;;5039620;28;20032;-73
2022/04/25 12:33:43;;;;;;;13.85;3.45;;;23.10;56.20;;;;;;5039437;28;20473;-76
2022/04/25 12:36:18;;;;;;;9.48;3.08;;;23.00;56.90;;;;;;5039502;28;20079;-76
2022/04/25 12:38:57;;;;;;;10.15;3.03;;;22.90;56.90;;;;;;5039723;28;20463;-75
2022/04/25 12:41:30;;;;;;;14.70;3.50;;;22.90;56.70;;;;;;5039713;28;20033;-75
2022/04/25 12:44:00;;;;;;;9.60;2.97;;;23.00;55.80;;;;;;5039967;28;20079;-75
2022/04/25 12:46:42;;;;;;;8.95;3.08;;;23.10;57.00;;;;;;5039673;28;20083;-74
2022/04/25 12:49:17;;;;;;;10.68;3.10;;;23.20;56.50;;;;;;5039470;28;20152;-74
2022/04/25 12:51:45;;;;;;;13.55;3.35;;;23.30;56.00;;;;;;5039151;28;20462;-71
2022/04/25 12:54:24;;;;;;;12.82;3.83;;;23.40;56.40;;;;;;5039426;28;20501;-74
2022/04/25 12:57:18;;;;;;;11.70;3.15;;;23.40;56.40;;;;;;5039680;28;20029;-74
2022/04/25 12:59:59;;;;;;;10.93;3.40;;;23.40;56.80;;;;;;5039491;28;20052;-73
2022/04/25 13:02:35;;;;;;;13.45;3.40;;;23.40;56.30;;;;;;5039315;28;20275;-73
2022/04/25 13:05:09;;;;;;;9.65;2.83;;;23.40;55.10;;;;;;5039361;28;20080;-71
2022/04/25 13:07:53;;;;;;;15.63;3.50;;;23.30;55.50;;;;;;5039297;28;20029;-71
2022/04/25 13:10:20;;;;;;;9.25;3.40;;;23.20;55.40;;;;;;5039187;28;20029;-72
2022/04/25 13:12:49;;;;;;;8.70;2.80;;;23.20;56.00;;;;;;5039016;28;20036;-72
2022/04/25 13:15:20;;;;;;;10.73;3.30;;;23.20;56.40;;;;;;5038866;28;20064;-74
2022/04/25 13:17:48;;;;;;;9.93;2.90;;;23.20;56.50;;;;;;5005239;28;20360;-74
2022/04/25 13:20:17;;;;;;;9.05;3.10;;;23.20;56.60;;;;;;5038938;28;20488;-75